Time,TemperatureF,DewpointF,PressureIn,WindDirection,WindDirectionDegrees,WindSpeedMPH,WindSpeedGustMPH,Humidity,HourlyPrecipIn,Conditions,Clouds,dailyrainin,SoftwareType,DateUTC
2013-11-08 00:09:00,35.8,33.0,29.81,SSW,207,0.0,1.0,88,0.00,,,0.00,weatherlink.com 1.10,2013-11-08 05:09:00,
2013-11-08 00:25:00,36.0,33.0,29.81,WSW,248,0.0,1.0,88,0.00,,,0.00,weatherlink.com 1.10,2013-11-08 05:25:00,
2013-11-08 00:40:00,36.9,32.0,29.81,WNW,294,0.0,3.0,83,0.00,,,0.00,weatherlink.com 1.10,2013-11-08 05:40:00,
2013-11-08 00:55:00,37.3,32.0,29.81,SSW,208,0.0,1.0,81,0.00,,,0.00,weatherlink.com 1.10,2013-11-08 05:55:00,
2013-11-08 01:10:00,37.4,31.0,29.82,West,271,0.0,3.0,78,0.00,,,0.00,weatherlink.com 1.10,2013-11-08 06:10:00,
2013-11-08 01:25:00,37.2,31.0,29.82,West,259,0.0,3.0,77,0.00,,,0.00,weatherlink.com 1.10,2013-11-08 06:25:00,
2013-11-08 01:40:00,37.1,30.0,29.83,WSW,245,0.0,2.0,76,0.00,,,0.00,weatherlink.com 1.10,2013-11-08 06:40:00,
2013-11-08 01:55:00,36.8,30.0,29.83,West,273,0.0,1.0,76,0.00,,,0.00,weatherlink.com 1.10,2013-11-08 06:55:00,
2013-11-08 02:10:00,35.9,30.0,29.83,SW,226,0.0,1.0,78,0.00,,,0.00,weatherlink.com 1.10,2013-11-08 07:10:00,
2013-11-08 02:25:00,35.6,30.0,29.83,SW,229,0.0,1.0,79,0.00,,,0.00,weatherlink.com 1.10,2013-11-08 07:25:00,
2013-11-08 02:40:00,34.6,29.0,29.83,SW,229,0.0,0.0,80,0.00,,,0.00,weatherlink.com 1.10,2013-11-08 07:40:00,
2013-11-08 02:55:00,33.3,29.0,29.83,SW,229,0.0,0.0,83,0.00,,,0.00,weatherlink.com 1.10,2013-11-08 07:55:00,
2013-11-08 03:10:00,33.0,29.0,29.84,SW,229,0.0,0.0,84,0.00,,,0.00,weatherlink.com 1.10,2013-11-08 08:10:00,
2013-11-08 03:25:00,32.7,29.0,29.84,SW,219,0.0,0.0,85,0.00,,,0.00,weatherlink.com 1.10,2013-11-08 08:25:00,
2013-11-08 03:40:00,32.7,28.0,29.85,West,264,0.0,1.0,84,0.00,,,0.00,weatherlink.com 1.10,2013-11-08 08:40:00,
2013-11-08 03:55:00,32.5,29.0,29.86,West,264,0.0,0.0,85,0.00,,,0.00,weatherlink.com 1.10,2013-11-08 08:55:00,
2013-11-08 04:10:00,32.0,28.0,29.87,West,263,0.0,0.0,84,0.00,,,0.00,weatherlink.com 1.10,2013-11-08 09:10:00,
2013-11-08 04:25:00,31.6,27.0,29.87,WSW,241,0.0,0.0,84,0.00,,,0.00,weatherlink.com 1.10,2013-11-08 09:25:00,
2013-11-08 04:40:00,32.4,27.0,29.87,WSW,253,0.0,2.0,81,0.00,,,0.00,weatherlink.com 1.10,2013-11-08 09:40:00,
2013-11-08 04:55:00,32.4,27.0,29.87,West,265,0.0,1.0,80,0.00,,,0.00,weatherlink.com 1.10,2013-11-08 09:55:00,
2013-11-08 05:10:00,32.4,27.0,29.88,SW,215,0.0,1.0,79,0.00,,,0.00,weatherlink.com 1.10,2013-11-08 10:10:00,
2013-11-08 05:25:00,32.0,27.0,29.88,WSW,242,0.0,1.0,80,0.00,,,0.00,weatherlink.com 1.10,2013-11-08 10:25:00,
2013-11-08 05:40:00,31.7,26.0,29.88,WSW,237,0.0,1.0,79,0.00,,,0.00,weatherlink.com 1.10,2013-11-08 10:40:00,
2013-11-08 05:55:00,31.2,26.0,29.88,SW,236,0.0,0.0,82,0.00,,,0.00,weatherlink.com 1.10,2013-11-08 10:55:00,
2013-11-08 06:10:00,30.6,26.0,29.89,WSW,237,0.0,0.0,82,0.00,,,0.00,weatherlink.com 1.10,2013-11-08 11:10:00,
2013-11-08 06:25:00,31.4,26.0,29.90,WSW,253,0.0,4.0,80,0.00,,,0.00,weatherlink.com 1.10,2013-11-08 11:25:00,
2013-11-08 06:40:00,32.9,26.0,29.91,West,273,0.0,4.0,75,0.00,,,0.00,weatherlink.com 1.10,2013-11-08 11:40:00,
2013-11-08 06:55:00,33.2,26.0,29.91,WSW,245,0.0,2.0,75,0.00,,,0.00,weatherlink.com 1.10,2013-11-08 11:55:00,
2013-11-08 07:10:00,33.5,26.0,29.91,WSW,244,0.0,1.0,75,0.00,,,0.00,weatherlink.com 1.10,2013-11-08 12:10:00,
2013-11-08 07:25:00,34.9,27.0,29.91,WSW,250,1.0,2.0,73,0.00,,,0.00,weatherlink.com 1.10,2013-11-08 12:25:00,
2013-11-08 07:41:00,36.8,27.0,29.91,SW,218,0.0,5.0,69,0.00,,,0.00,weatherlink.com 1.10,2013-11-08 12:41:00,
2013-11-08 07:56:00,38.3,28.0,29.91,West,271,1.0,5.0,66,0.00,,,0.00,weatherlink.com 1.10,2013-11-08 12:56:00,
2013-11-08 08:11:00,39.3,28.0,29.92,South,170,3.0,7.0,65,0.00,,,0.00,weatherlink.com 1.10,2013-11-08 13:11:00,
2013-11-08 08:26:00,40.0,30.0,29.92,WSW,245,0.0,6.0,67,0.00,,,0.00,weatherlink.com 1.10,2013-11-08 13:26:00,
2013-11-08 08:41:00,41.5,31.0,29.91,SSW,200,4.0,7.0,66,0.00,,,0.00,weatherlink.com 1.10,2013-11-08 13:41:00,
2013-11-08 08:56:00,42.0,32.0,29.91,West,276,1.0,7.0,68,0.00,,,0.00,weatherlink.com 1.10,2013-11-08 13:56:00,
2013-11-08 09:11:00,41.9,32.0,29.91,WSW,246,4.0,8.0,69,0.00,,,0.00,weatherlink.com 1.10,2013-11-08 14:11:00,
2013-11-08 09:26:00,42.2,33.0,29.91,WSW,245,3.0,10.0,71,0.00,,,0.00,weatherlink.com 1.10,2013-11-08 14:26:00,
2013-11-08 09:41:00,42.4,33.0,29.90,WNW,296,2.0,7.0,70,0.00,,,0.00,weatherlink.com 1.10,2013-11-08 14:41:00,
2013-11-08 09:56:00,42.9,34.0,29.90,WSW,257,3.0,11.0,70,0.00,,,0.00,weatherlink.com 1.10,2013-11-08 14:56:00,
2013-11-08 10:11:00,44.1,35.0,29.90,WNW,284,1.0,7.0,70,0.00,,,0.00,weatherlink.com 1.10,2013-11-08 15:11:00,
2013-11-08 10:26:00,44.8,34.0,29.90,West,273,3.0,8.0,66,0.00,,,0.00,weatherlink.com 1.10,2013-11-08 15:26:00,
2013-11-08 10:41:00,45.6,33.0,29.89,WNW,290,2.0,8.0,61,0.00,,,0.00,weatherlink.com 1.10,2013-11-08 15:41:00,
2013-11-08 10:56:00,46.6,33.0,29.89,SE,142,1.0,10.0,60,0.00,,,0.00,weatherlink.com 1.10,2013-11-08 15:56:00,
2013-11-08 11:11:00,46.7,32.0,29.89,West,265,2.0,12.0,57,0.00,,,0.00,weatherlink.com 1.10,2013-11-08 16:11:00,
2013-11-08 11:26:00,47.0,31.0,29.88,NNW,338,3.0,11.0,55,0.00,,,0.00,weatherlink.com 1.10,2013-11-08 16:26:00,
2013-11-08 11:41:00,47.2,31.0,29.87,SW,232,4.0,15.0,54,0.00,,,0.00,weatherlink.com 1.10,2013-11-08 16:41:00,
2013-11-08 11:56:00,46.7,31.0,29.88,SSW,206,6.0,12.0,55,0.00,,,0.00,weatherlink.com 1.10,2013-11-08 16:56:00,
2013-11-08 12:11:00,46.3,31.0,29.87,NW,310,1.0,12.0,55,0.00,,,0.00,weatherlink.com 1.10,2013-11-08 17:11:00,
2013-11-08 12:26:00,46.9,30.0,29.86,West,267,7.0,15.0,53,0.00,,,0.00,weatherlink.com 1.10,2013-11-08 17:26:00,
2013-11-08 12:41:00,46.7,31.0,29.86,SSW,203,3.0,8.0,54,0.00,,,0.00,weatherlink.com 1.10,2013-11-08 17:41:00,
2013-11-08 12:56:00,46.2,30.0,29.86,SW,219,1.0,12.0,54,0.00,,,0.00,weatherlink.com 1.10,2013-11-08 17:56:00,
2013-11-08 13:11:00,46.5,30.0,29.86,WNW,300,1.0,9.0,54,0.00,,,0.00,weatherlink.com 1.10,2013-11-08 18:11:00,
2013-11-08 13:26:00,44.8,34.0,29.87,West,271,1.0,10.0,65,0.01,,,0.01,weatherlink.com 1.10,2013-11-08 18:26:00,
2013-11-08 13:41:00,46.4,34.0,29.87,WNW,286,7.0,9.0,63,0.01,,,0.01,weatherlink.com 1.10,2013-11-08 18:41:00,
2013-11-08 13:56:00,47.6,32.0,29.86,West,273,4.0,11.0,55,0.01,,,0.01,weatherlink.com 1.10,2013-11-08 18:56:00,
2013-11-08 14:11:00,48.4,29.0,29.87,West,276,4.0,18.0,48,0.01,,,0.01,weatherlink.com 1.10,2013-11-08 19:11:00,
2013-11-08 14:26:00,46.9,28.0,29.87,West,279,2.0,11.0,49,0.00,,,0.01,weatherlink.com 1.10,2013-11-08 19:26:00,
2013-11-08 14:41:00,46.4,28.0,29.88,East,84,7.0,11.0,49,0.00,,,0.01,weatherlink.com 1.10,2013-11-08 19:41:00,
2013-11-08 14:56:00,46.2,28.0,29.88,NW,323,5.0,9.0,49,0.00,,,0.01,weatherlink.com 1.10,2013-11-08 19:56:00,
2013-11-08 15:11:00,45.7,28.0,29.89,West,265,1.0,4.0,50,0.00,,,0.01,weatherlink.com 1.10,2013-11-08 20:11:00,
2013-11-08 15:26:00,45.3,28.0,29.90,NW,310,3.0,13.0,52,0.00,,,0.01,weatherlink.com 1.10,2013-11-08 20:26:00,
2013-11-08 15:41:00,44.6,27.0,29.91,WSW,242,4.0,13.0,50,0.00,,,0.01,weatherlink.com 1.10,2013-11-08 20:41:00,
2013-11-08 15:56:00,44.2,26.0,29.91,West,278,3.0,10.0,50,0.00,,,0.01,weatherlink.com 1.10,2013-11-08 20:56:00,
2013-11-08 16:11:00,43.8,26.0,29.92,North,5,3.0,11.0,49,0.00,,,0.01,weatherlink.com 1.10,2013-11-08 21:11:00,
2013-11-08 16:26:00,43.3,26.0,29.92,West,263,3.0,10.0,50,0.00,,,0.01,weatherlink.com 1.10,2013-11-08 21:26:00,
2013-11-08 16:41:00,42.8,26.0,29.93,WNW,289,3.0,9.0,51,0.00,,,0.01,weatherlink.com 1.10,2013-11-08 21:41:00,
2013-11-08 17:11:00,42.0,25.0,29.95,WNW,300,8.0,13.0,51,0.00,,,0.01,weatherlink.com 1.10,2013-11-08 22:11:00,
2013-11-08 17:26:00,41.7,25.0,29.96,NW,326,5.0,12.0,52,0.00,,,0.01,weatherlink.com 1.10,2013-11-08 22:26:00,
2013-11-08 17:41:00,41.4,25.0,29.97,WSW,257,4.0,13.0,53,0.00,,,0.01,weatherlink.com 1.10,2013-11-08 22:41:00,
2013-11-08 17:56:00,41.0,26.0,29.98,NNW,329,4.0,6.0,55,0.00,,,0.01,weatherlink.com 1.10,2013-11-08 22:56:00,
2013-11-08 18:12:00,40.6,26.0,29.99,West,281,1.0,6.0,57,0.00,,,0.01,weatherlink.com 1.10,2013-11-08 23:12:00,
2013-11-08 18:27:00,40.0,25.0,30.00,WSW,244,5.0,7.0,55,0.00,,,0.01,weatherlink.com 1.10,2013-11-08 23:27:00,
2013-11-08 18:42:00,39.8,23.0,30.00,WNW,303,1.0,9.0,51,0.00,,,0.01,weatherlink.com 1.10,2013-11-08 23:42:00,
2013-11-08 18:57:00,39.4,22.0,30.01,West,266,0.0,7.0,51,0.00,,,0.01,weatherlink.com 1.10,2013-11-08 23:57:00,
2013-11-08 19:12:00,39.0,22.0,30.02,NNW,341,2.0,8.0,51,0.00,,,0.01,weatherlink.com 1.10,2013-11-09 00:12:00,
2013-11-08 19:27:00,38.7,22.0,30.02,SSW,195,0.0,8.0,51,0.00,,,0.01,weatherlink.com 1.10,2013-11-09 00:27:00,
2013-11-08 19:42:00,38.2,22.0,30.03,West,263,2.0,6.0,52,0.00,,,0.01,weatherlink.com 1.10,2013-11-09 00:42:00,
2013-11-08 19:57:00,37.9,22.0,30.04,North,360,0.0,5.0,52,0.00,,,0.01,weatherlink.com 1.10,2013-11-09 00:57:00,
2013-11-08 20:12:00,37.7,22.0,30.04,West,277,0.0,8.0,53,0.00,,,0.01,weatherlink.com 1.10,2013-11-09 01:12:00,
2013-11-08 20:27:00,37.3,22.0,30.05,NW,306,0.0,4.0,54,0.00,,,0.01,weatherlink.com 1.10,2013-11-09 01:27:00,
2013-11-08 20:42:00,36.9,21.0,30.05,WSW,237,0.0,2.0,54,0.00,,,0.01,weatherlink.com 1.10,2013-11-09 01:42:00,
2013-11-08 20:57:00,36.6,22.0,30.05,SSW,209,0.0,4.0,55,0.00,,,0.01,weatherlink.com 1.10,2013-11-09 01:57:00,
2013-11-08 21:12:00,36.3,21.0,30.06,WNW,303,0.0,2.0,55,0.00,,,0.01,weatherlink.com 1.10,2013-11-09 02:12:00,
2013-11-08 21:27:00,35.9,21.0,30.06,NNE,15,0.0,1.0,56,0.00,,,0.01,weatherlink.com 1.10,2013-11-09 02:27:00,
2013-11-08 21:42:00,35.6,22.0,30.07,WSW,257,0.0,3.0,57,0.00,,,0.01,weatherlink.com 1.10,2013-11-09 02:42:00,
2013-11-08 21:57:00,35.4,21.0,30.07,WSW,244,0.0,5.0,57,0.00,,,0.01,weatherlink.com 1.10,2013-11-09 02:57:00,
2013-11-08 22:12:00,35.0,22.0,30.07,SW,225,0.0,2.0,59,0.00,,,0.01,weatherlink.com 1.10,2013-11-09 03:12:00,
2013-11-08 22:27:00,34.5,21.0,30.07,SW,235,0.0,2.0,59,0.00,,,0.01,weatherlink.com 1.10,2013-11-09 03:27:00,
2013-11-08 22:42:00,33.8,21.0,30.07,WSW,249,0.0,1.0,61,0.00,,,0.01,weatherlink.com 1.10,2013-11-09 03:42:00,
2013-11-08 22:57:00,33.7,22.0,30.07,SSE,163,0.0,2.0,62,0.00,,,0.01,weatherlink.com 1.10,2013-11-09 03:57:00,
2013-11-08 23:12:00,33.5,22.0,30.07,SW,226,0.0,4.0,64,0.00,,,0.01,weatherlink.com 1.10,2013-11-09 04:12:00,
2013-11-08 23:27:00,33.3,23.0,30.08,SW,225,0.0,2.0,65,0.00,,,0.01,weatherlink.com 1.10,2013-11-09 04:27:00,
2013-11-08 23:42:00,33.7,23.0,30.09,West,277,1.0,3.0,66,0.00,,,0.01,weatherlink.com 1.10,2013-11-09 04:42:00,
2013-11-08 23:57:00,35.1,24.0,30.09,West,263,4.0,4.0,63,0.00,,,0.01,weatherlink.com 1.10,2013-11-09 04:57:00,